createdAt,value
2022-11-29T00:01:31.316Z,7.10
2022-11-29T00:03:58.163Z,7.10
2022-11-29T00:06:27.318Z,7.10
2022-11-29T00:08:54.539Z,7.20
2022-11-29T00:11:40.942Z,7.20
2022-11-29T00:14:08.285Z,7.20
2022-11-29T00:16:35.169Z,7.30
2022-11-29T00:19:02.114Z,7.40
2022-11-29T00:21:29.026Z,7.40
2022-11-29T00:23:55.867Z,7.30
2022-11-29T00:26:22.671Z,7.50
2022-11-29T00:28:49.408Z,7.50
2022-11-29T00:31:19.250Z,7.60
2022-11-29T00:33:45.982Z,7.50
2022-11-29T00:36:12.846Z,7.80
2022-11-29T00:38:39.797Z,7.60
2022-11-29T00:41:06.705Z,7.60
2022-11-29T00:43:33.452Z,7.50
2022-11-29T00:46:00.256Z,7.70
2022-11-29T00:48:26.959Z,8.30
2022-11-29T00:50:53.882Z,7.70
2022-11-29T00:53:20.544Z,7.70
2022-11-29T00:55:50.874Z,7.80
2022-11-29T00:58:17.875Z,7.80
2022-11-29T01:00:44.615Z,7.80
2022-11-29T01:03:11.374Z,7.70
2022-11-29T01:05:43.069Z,7.80
2022-11-29T01:08:10.274Z,7.80
2022-11-29T01:10:37.146Z,7.80
2022-11-29T01:13:04.055Z,7.80
2022-11-29T01:15:30.828Z,7.80
2022-11-29T01:17:57.670Z,7.70
2022-11-29T01:20:24.477Z,7.80
2022-11-29T01:22:51.260Z,7.80
2022-11-29T01:25:19.425Z,7.80
2022-11-29T01:27:46.439Z,7.80
2022-11-29T01:30:13.180Z,7.80
2022-11-29T01:32:39.923Z,7.80
2022-11-29T01:35:06.974Z,7.80
2022-11-29T01:37:33.715Z,7.80
2022-11-29T01:40:00.690Z,7.80
2022-11-29T01:42:27.638Z,7.80
2022-11-29T01:45:16.089Z,7.80
2022-11-29T01:47:43.900Z,7.80
2022-11-29T01:50:11.007Z,7.80
2022-11-29T01:52:40.580Z,7.80
2022-11-29T01:55:07.624Z,7.80
2022-11-29T01:57:34.861Z,7.90
2022-11-29T02:00:03.827Z,7.90
2022-11-29T02:02:31.409Z,7.90
2022-11-29T02:04:58.577Z,7.90
2022-11-29T02:07:25.354Z,7.90
2022-11-29T02:09:52.085Z,7.90
2022-11-29T02:12:37.750Z,7.90
2022-11-29T02:15:33.978Z,7.90
2022-11-29T02:18:02.592Z,8.00
2022-11-29T02:20:32.360Z,8.00
2022-11-29T02:22:59.222Z,8.00
2022-11-29T02:25:35.188Z,8.00
2022-11-29T02:28:04.969Z,8.00
2022-11-29T02:30:50.755Z,8.00
2022-11-29T02:33:23.771Z,8.00
2022-11-29T02:35:57.143Z,8.00
2022-11-29T02:38:42.823Z,8.10
2022-11-29T02:41:09.592Z,8.10
2022-11-29T02:43:51.831Z,8.10
2022-11-29T02:46:30.621Z,8.10
2022-11-29T02:49:06.740Z,8.10
2022-11-29T02:51:49.773Z,8.10
2022-11-29T02:54:16.885Z,8.10
2022-11-29T02:56:45.336Z,8.10
2022-11-29T02:59:21.320Z,8.10
2022-11-29T03:01:51.204Z,8.10
2022-11-29T03:04:18.098Z,8.10
2022-11-29T03:07:03.677Z,8.10
2022-11-29T03:09:50.687Z,8.00
2022-11-29T03:12:17.520Z,8.00
2022-11-29T03:14:49.991Z,8.00
2022-11-29T03:17:36.264Z,8.00
2022-11-29T03:20:03.414Z,8.00
2022-11-29T03:22:42.776Z,8.40
2022-11-29T03:25:09.702Z,8.40
2022-11-29T03:27:43.941Z,8.00
2022-11-29T03:30:11.711Z,8.00
2022-11-29T03:32:41.116Z,7.90
2022-11-29T03:35:26.695Z,7.90
2022-11-29T03:37:56.924Z,7.90
2022-11-29T03:40:29.802Z,7.90
2022-11-29T03:42:58.153Z,7.90
2022-11-29T03:45:34.140Z,8.00
2022-11-29T03:48:05.455Z,7.80
2022-11-29T03:50:36.676Z,7.90
2022-11-29T03:53:04.629Z,8.00
2022-11-29T03:55:33.184Z,7.70
2022-11-29T03:58:06.174Z,8.00
2022-11-29T04:00:41.459Z,8.00
2022-11-29T04:03:08.164Z,8.00
2022-11-29T04:05:37.962Z,7.90
2022-11-29T04:08:04.908Z,7.90
2022-11-29T04:10:50.651Z,7.90
2022-11-29T04:13:26.574Z,7.90
2022-11-29T04:15:53.352Z,7.90
2022-11-29T04:18:26.433Z,7.90
2022-11-29T04:21:08.408Z,7.80
2022-11-29T04:23:44.181Z,7.80
2022-11-29T04:26:29.684Z,7.80
2022-11-29T04:29:09.458Z,7.80
2022-11-29T04:31:48.725Z,7.80
2022-11-29T04:34:18.717Z,7.80
2022-11-29T04:37:04.403Z,7.70
2022-11-29T04:39:31.181Z,7.70
2022-11-29T04:41:57.889Z,7.80
2022-11-29T04:44:32.735Z,7.80
2022-11-29T04:47:02.701Z,7.80
2022-11-29T04:49:32.489Z,7.80
2022-11-29T04:52:15.105Z,7.70
2022-11-29T04:54:47.994Z,7.70
2022-11-29T04:57:36.894Z,7.70
2022-11-29T05:00:10.815Z,7.80
2022-11-29T05:02:40.722Z,7.70
2022-11-29T05:05:26.230Z,7.70
2022-11-29T05:07:54.856Z,7.70
2022-11-29T05:10:35.985Z,6.90
2022-11-29T05:13:21.775Z,7.60
2022-11-29T05:16:01.091Z,7.70
2022-11-29T05:18:39.553Z,7.60
2022-11-29T05:21:07.879Z,8.10
2022-11-29T05:23:41.023Z,7.40
2022-11-29T05:26:16.929Z,7.60
2022-11-29T05:29:03.917Z,7.60
2022-11-29T05:31:49.738Z,7.60
2022-11-29T05:34:34.563Z,7.60
2022-11-29T05:37:20.568Z,7.60
2022-11-29T05:39:53.491Z,7.60
2022-11-29T05:42:25.498Z,7.50
2022-11-29T05:44:57.377Z,7.40
2022-11-29T05:47:31.246Z,7.50
2022-11-29T05:50:01.022Z,7.50
2022-11-29T05:52:34.700Z,7.50
2022-11-29T05:55:14.481Z,7.50
2022-11-29T05:57:53.106Z,7.50
2022-11-29T06:00:19.934Z,7.50
2022-11-29T06:03:05.620Z,7.50
2022-11-29T06:05:37.079Z,7.50
2022-11-29T06:08:03.871Z,7.50
2022-11-29T06:10:35.075Z,7.50
2022-11-29T06:13:19.736Z,7.50
2022-11-29T06:15:46.798Z,7.50
2022-11-29T06:18:37.012Z,7.60
2022-11-29T06:21:22.674Z,7.40
2022-11-29T06:23:52.902Z,7.50
2022-11-29T06:26:26.872Z,7.40
2022-11-29T06:29:14.784Z,7.40
2022-11-29T06:31:44.292Z,7.40
2022-11-29T06:34:30.954Z,7.40
2022-11-29T06:37:03.499Z,7.40
2022-11-29T06:39:30.359Z,7.40
2022-11-29T06:41:57.447Z,7.40
2022-11-29T06:44:24.392Z,7.40
2022-11-29T06:46:54.178Z,7.40
2022-11-29T06:49:24.056Z,7.50
2022-11-29T06:52:09.687Z,7.50
2022-11-29T06:54:40.697Z,7.40
2022-11-29T06:57:10.619Z,7.50
2022-11-29T06:59:40.574Z,7.40
2022-11-29T07:02:26.448Z,7.50
2022-11-29T07:04:56.289Z,7.40
2022-11-29T07:07:23.644Z,7.50
2022-11-29T07:09:51.406Z,7.50
2022-11-29T07:12:21.160Z,7.50
2022-11-29T07:14:48.252Z,7.50
2022-11-29T07:17:23.773Z,7.50
2022-11-29T07:19:50.910Z,7.50
2022-11-29T07:22:23.797Z,7.50
2022-11-29T07:24:54.019Z,7.50
2022-11-29T07:27:22.648Z,7.50
2022-11-29T07:29:53.985Z,7.50
2022-11-29T07:32:30.067Z,7.50
2022-11-29T07:35:20.157Z,7.50
2022-11-29T07:37:46.846Z,7.50
2022-11-29T07:40:19.739Z,7.50
2022-11-29T07:42:52.605Z,7.50
2022-11-29T07:45:25.525Z,7.50
2022-11-29T07:47:52.375Z,7.50
2022-11-29T07:50:19.075Z,7.80
2022-11-29T07:52:45.818Z,8.10
2022-11-29T07:55:19.027Z,7.40
2022-11-29T07:57:46.273Z,7.50
2022-11-29T08:00:16.873Z,8.20
2022-11-29T08:02:43.996Z,7.50
2022-11-29T08:05:10.892Z,7.80
2022-11-29T08:07:38.138Z,6.40
2022-11-29T08:10:05.801Z,7.60
2022-11-29T08:12:32.598Z,7.50
2022-11-29T08:14:59.444Z,7.30
2022-11-29T08:17:26.224Z,7.50
2022-11-29T08:19:52.978Z,7.50
2022-11-29T08:22:19.659Z,7.50
2022-11-29T08:24:46.704Z,7.60
2022-11-29T08:27:13.827Z,7.60
2022-11-29T08:29:40.653Z,7.60
2022-11-29T08:32:08.967Z,7.50
2022-11-29T08:34:35.764Z,7.60
2022-11-29T08:37:02.415Z,7.80
2022-11-29T08:39:29.163Z,7.60
2022-11-29T08:41:55.841Z,7.60
2022-11-29T08:44:22.736Z,7.60
2022-11-29T08:47:08.198Z,7.40
2022-11-29T08:49:34.982Z,7.60
2022-11-29T08:52:31.187Z,7.60
2022-11-29T08:55:02.969Z,7.60
2022-11-29T08:57:45.478Z,7.60
2022-11-29T09:00:12.661Z,7.90
2022-11-29T09:02:39.449Z,7.60
2022-11-29T09:05:06.398Z,7.80
2022-11-29T09:07:33.222Z,7.60
2022-11-29T09:10:05.084Z,8.90
2022-11-29T09:12:32.725Z,7.70
2022-11-29T09:14:59.401Z,7.70
2022-11-29T09:17:26.063Z,7.70
2022-11-29T09:19:52.785Z,7.60
2022-11-29T09:22:19.632Z,7.60
2022-11-29T09:24:47.171Z,7.60
2022-11-29T09:27:14.164Z,7.50
2022-11-29T09:29:40.991Z,7.50
2022-11-29T09:32:07.908Z,7.60
2022-11-29T09:34:34.644Z,7.60
2022-11-29T09:37:01.402Z,7.60
2022-11-29T09:39:28.240Z,7.70
2022-11-29T09:42:04.609Z,7.60
2022-11-29T09:44:52.243Z,7.60
2022-11-29T09:47:22.959Z,7.60
2022-11-29T09:49:52.067Z,7.60
2022-11-29T09:52:34.494Z,7.60
2022-11-29T09:55:33.176Z,7.70
2022-11-29T09:58:14.267Z,7.50
2022-11-29T10:00:50.872Z,7.50
2022-11-29T10:03:23.388Z,7.50
2022-11-29T10:05:51.555Z,7.50
2022-11-29T10:08:26.186Z,7.50
2022-11-29T10:11:03.779Z,7.50
2022-11-29T10:13:34.751Z,7.50
2022-11-29T10:16:10.652Z,7.50
2022-11-29T10:18:38.538Z,7.50
2022-11-29T10:21:06.824Z,7.50
2022-11-29T10:23:37.353Z,7.60
2022-11-29T10:26:07.964Z,7.60
2022-11-29T10:28:35.368Z,7.60
2022-11-29T10:31:26.846Z,7.60
2022-11-29T10:33:54.020Z,7.60
2022-11-29T10:36:33.148Z,7.50
2022-11-29T10:39:01.829Z,7.60
2022-11-29T10:41:28.642Z,7.50
2022-11-29T10:43:55.885Z,7.60
2022-11-29T10:46:30.378Z,7.50
2022-11-29T10:49:04.674Z,7.60
2022-11-29T10:51:36.246Z,7.60
2022-11-29T10:54:11.545Z,6.60
2022-11-29T10:56:38.315Z,7.70
2022-11-29T10:59:08.013Z,7.80
2022-11-29T11:01:43.836Z,7.80
2022-11-29T11:04:29.350Z,7.80
2022-11-29T11:06:57.016Z,7.80
2022-11-29T11:09:26.725Z,7.80
2022-11-29T11:11:54.701Z,7.80
2022-11-29T11:14:24.407Z,7.80
2022-11-29T11:16:51.202Z,7.80
2022-11-29T11:19:36.272Z,7.80
2022-11-29T11:22:04.118Z,7.70
2022-11-29T11:24:34.805Z,8.00
2022-11-29T11:27:01.564Z,7.90
2022-11-29T11:29:46.540Z,7.80
2022-11-29T11:32:17.269Z,7.80
2022-11-29T11:34:50.987Z,7.80
2022-11-29T11:37:20.779Z,7.80
2022-11-29T11:39:48.633Z,7.80
2022-11-29T11:42:38.910Z,7.90
2022-11-29T11:45:06.038Z,7.80
2022-11-29T11:47:33.106Z,8.00
2022-11-29T11:50:05.551Z,8.10
2022-11-29T11:52:34.838Z,8.00
2022-11-29T11:55:24.564Z,8.00
2022-11-29T11:58:09.728Z,8.10
2022-11-29T12:03:52.758Z,8.10
2022-11-29T12:06:25.532Z,8.10
2022-11-29T12:08:53.486Z,8.10
2022-11-29T12:11:20.206Z,8.10
2022-11-29T12:13:51.250Z,8.20
2022-11-29T12:16:19.891Z,8.20
2022-11-29T12:18:47.713Z,8.30
2022-11-29T12:21:16.460Z,8.20
2022-11-29T12:23:49.444Z,8.20
2022-11-29T12:26:55.216Z,8.20
2022-11-29T12:29:12.029Z,8.20
2022-11-29T12:31:38.779Z,8.20
2022-11-29T12:34:22.225Z,8.20
2022-11-29T12:36:58.514Z,8.20
2022-11-29T12:39:28.358Z,8.20
2022-11-29T12:42:03.647Z,8.20
2022-11-29T12:44:39.458Z,8.20
2022-11-29T12:47:35.061Z,8.30
2022-11-29T12:50:01.251Z,8.30
2022-11-29T12:52:46.500Z,8.30
2022-11-29T12:55:18.229Z,8.30
2022-11-29T12:57:51.473Z,8.30
2022-11-29T13:00:18.495Z,8.40
2022-11-29T13:02:45.315Z,8.30
2022-11-29T13:05:15.369Z,8.30
2022-11-29T13:07:54.393Z,8.30
2022-11-29T13:10:33.418Z,8.20
2022-11-29T13:13:20.689Z,8.20
2022-11-29T13:15:53.106Z,8.20
2022-11-29T13:18:23.479Z,8.20
2022-11-29T13:20:56.500Z,8.20
2022-11-29T13:23:45.537Z,8.20
2022-11-29T13:26:17.440Z,8.20
2022-11-29T13:28:45.170Z,8.10
2022-11-29T13:31:18.844Z,8.00
2022-11-29T13:33:54.887Z,8.10
2022-11-29T13:36:27.427Z,8.00
2022-11-29T13:38:54.076Z,8.00
2022-11-29T13:41:23.929Z,8.00
2022-11-29T13:43:55.630Z,8.00
2022-11-29T13:46:28.466Z,8.00
2022-11-29T13:48:55.475Z,8.00
2022-11-29T13:51:24.719Z,8.00
2022-11-29T13:53:51.410Z,8.00
2022-11-29T13:56:29.809Z,8.00
2022-11-29T13:58:56.477Z,8.00
2022-11-29T14:01:26.671Z,8.00
2022-11-29T14:03:59.562Z,8.00
2022-11-29T14:06:47.921Z,8.00
2022-11-29T14:09:19.621Z,8.00
2022-11-29T14:11:53.031Z,7.20
2022-11-29T14:14:21.406Z,7.90
2022-11-29T14:16:48.107Z,7.90
2022-11-29T14:19:21.193Z,7.90
2022-11-29T14:22:09.390Z,7.90
2022-11-29T14:24:36.387Z,7.90
2022-11-29T14:27:06.069Z,7.90
2022-11-29T14:29:52.699Z,7.90
2022-11-29T14:32:31.667Z,7.90
2022-11-29T14:34:58.343Z,7.90
2022-11-29T14:37:35.535Z,7.90
2022-11-29T14:40:03.426Z,7.90
2022-11-29T14:42:30.206Z,7.90
2022-11-29T14:44:58.447Z,7.90
2022-11-29T14:47:31.609Z,8.00
2022-11-29T14:49:59.044Z,8.00
2022-11-29T14:52:32.747Z,7.90
2022-11-29T14:54:59.647Z,8.00
2022-11-29T14:57:44.862Z,7.70
2022-11-29T15:00:14.266Z,8.00
2022-11-29T15:02:46.132Z,8.00
2022-11-29T15:05:13.153Z,8.00
2022-11-29T15:07:43.418Z,8.00
2022-11-29T15:10:13.977Z,8.00
2022-11-29T15:12:40.664Z,8.00
2022-11-29T15:15:26.300Z,8.00
2022-11-29T15:17:53.529Z,8.00
2022-11-29T15:20:20.160Z,8.00
2022-11-29T15:22:48.354Z,8.10
2022-11-29T15:25:17.146Z,8.00
2022-11-29T15:27:59.994Z,8.00
2022-11-29T15:30:36.966Z,8.00
2022-11-29T15:33:04.709Z,8.00
2022-11-29T15:35:31.739Z,8.00
2022-11-29T15:37:58.486Z,8.00
2022-11-29T15:40:31.365Z,8.00
2022-11-29T15:43:15.211Z,7.90
2022-11-29T15:45:46.272Z,8.00
2022-11-29T15:48:17.291Z,8.00
2022-11-29T15:50:54.046Z,7.90
2022-11-29T15:53:23.572Z,8.40
2022-11-29T15:58:39.886Z,7.90
2022-11-29T16:01:06.782Z,7.90
2022-11-29T16:03:34.317Z,7.90
2022-11-29T16:06:08.712Z,7.90
2022-11-29T16:08:37.122Z,7.90
2022-11-29T16:11:04.204Z,7.90
2022-11-29T16:13:31.747Z,7.90
2022-11-29T16:16:11.073Z,7.90
2022-11-29T16:18:40.749Z,7.80
2022-11-29T16:21:07.595Z,7.90
2022-11-29T16:23:41.470Z,7.90
2022-11-29T16:26:09.503Z,7.90
2022-11-29T16:28:41.661Z,7.90
2022-11-29T16:31:11.349Z,7.90
2022-11-29T16:33:40.273Z,7.90
2022-11-29T16:36:11.502Z,7.80
2022-11-29T16:38:42.602Z,7.90
2022-11-29T16:41:22.931Z,7.80
2022-11-29T16:43:53.887Z,7.90
2022-11-29T16:46:21.038Z,8.40
2022-11-29T16:48:48.377Z,7.80
2022-11-29T16:51:17.219Z,8.00
2022-11-29T16:53:44.381Z,7.90
2022-11-29T16:56:11.513Z,7.90
2022-11-29T16:59:25.304Z,7.90
2022-11-29T17:01:30.635Z,8.40
2022-11-29T17:03:57.951Z,8.00
2022-11-29T17:06:24.774Z,7.50
2022-11-29T17:08:51.683Z,8.00
2022-11-29T17:11:18.422Z,8.00
2022-11-29T17:13:45.995Z,8.00
2022-11-29T17:16:13.604Z,8.10
2022-11-29T17:18:41.509Z,8.50
2022-11-29T17:21:17.377Z,8.00
2022-11-29T17:23:44.168Z,8.00
2022-11-29T17:26:11.177Z,8.10
2022-11-29T17:28:39.844Z,8.00
2022-11-29T17:31:16.301Z,8.00
2022-11-29T17:33:43.059Z,8.00
2022-11-29T17:36:10.734Z,8.70
2022-11-29T17:38:37.818Z,8.00
2022-11-29T17:41:08.505Z,8.00
2022-11-29T17:43:35.504Z,8.00
2022-11-29T17:46:11.441Z,8.00
2022-11-29T17:48:41.110Z,8.00
2022-11-29T17:51:28.801Z,8.20
2022-11-29T17:53:54.826Z,8.20
2022-11-29T17:56:22.643Z,8.20
2022-11-29T17:58:53.485Z,8.00
2022-11-29T18:01:21.320Z,8.10
2022-11-29T18:03:48.209Z,8.20
2022-11-29T18:06:24.887Z,8.40
2022-11-29T18:08:53.858Z,8.00
2022-11-29T18:11:21.582Z,8.10
2022-11-29T18:13:48.586Z,8.00
2022-11-29T18:16:16.491Z,8.10
2022-11-29T18:18:43.330Z,8.10
2022-11-29T18:21:10.228Z,8.10
2022-11-29T18:23:38.342Z,8.10
2022-11-29T18:26:06.031Z,8.10
2022-11-29T18:28:33.930Z,8.10
2022-11-29T18:31:06.207Z,8.10
2022-11-29T18:33:32.957Z,8.10
2022-11-29T18:36:05.330Z,8.10
2022-11-29T18:38:32.829Z,8.10
2022-11-29T18:41:00.286Z,8.10
2022-11-29T18:43:27.128Z,8.40
2022-11-29T18:45:53.936Z,8.20
2022-11-29T18:48:20.744Z,8.20
2022-11-29T18:50:47.411Z,8.20
2022-11-29T18:53:14.317Z,8.20
2022-11-29T18:55:41.032Z,8.70
2022-11-29T18:58:08.456Z,8.10
2022-11-29T19:00:35.327Z,8.10
2022-11-29T19:03:02.157Z,8.10
2022-11-29T19:05:29.118Z,8.10
2022-11-29T19:07:55.823Z,8.20
2022-11-29T19:10:22.563Z,8.60
2022-11-29T19:12:49.290Z,8.10
2022-11-29T19:15:17.933Z,8.70
2022-11-29T19:17:44.976Z,8.10
2022-11-29T19:20:11.983Z,8.10
2022-11-29T19:22:38.794Z,8.10
2022-11-29T19:25:05.975Z,8.50
2022-11-29T19:27:32.864Z,8.70
2022-11-29T19:29:59.535Z,8.10
2022-11-29T19:32:26.236Z,8.10
2022-11-29T19:34:53.120Z,8.10
2022-11-29T19:37:20.066Z,8.10
2022-11-29T19:39:47.334Z,8.10
2022-11-29T19:42:14.243Z,8.10
2022-11-29T19:45:14.779Z,8.10
2022-11-29T19:47:28.193Z,8.10
2022-11-29T19:49:59.252Z,8.30
2022-11-29T19:52:28.996Z,8.10
2022-11-29T19:54:55.698Z,8.10
2022-11-29T19:57:25.717Z,8.80
2022-11-29T19:59:52.685Z,8.10
2022-11-29T20:02:19.477Z,8.10
2022-11-29T20:04:49.106Z,8.10
2022-11-29T20:07:16.019Z,8.10
2022-11-29T20:09:42.955Z,8.10
2022-11-29T20:12:09.677Z,8.20
2022-11-29T20:14:36.552Z,8.50
2022-11-29T20:17:03.415Z,8.10
2022-11-29T20:19:30.179Z,8.10
2022-11-29T20:21:57.027Z,8.10
2022-11-29T20:24:23.763Z,8.70
2022-11-29T20:26:50.446Z,8.10
2022-11-29T20:29:17.265Z,8.40
2022-11-29T20:31:49.461Z,8.10
2022-11-29T20:34:16.653Z,8.00
2022-11-29T20:36:58.865Z,8.10
2022-11-29T20:39:25.535Z,8.10
2022-11-29T20:42:05.506Z,8.10
2022-11-29T20:44:39.600Z,8.10
2022-11-29T20:47:14.095Z,8.10
2022-11-29T20:49:40.916Z,8.10
2022-11-29T20:52:07.639Z,8.10
2022-11-29T20:54:34.534Z,8.10
2022-11-29T20:57:01.257Z,8.10
2022-11-29T20:59:28.001Z,8.10
2022-11-29T21:01:56.192Z,8.10
2022-11-29T21:04:23.667Z,8.10
2022-11-29T21:06:50.606Z,8.10
2022-11-29T21:09:18.455Z,8.70
2022-11-29T21:11:45.445Z,8.20
2022-11-29T21:14:12.716Z,8.10
2022-11-29T21:16:39.579Z,8.10
2022-11-29T21:19:06.512Z,8.10
2022-11-29T21:22:02.285Z,8.10
2022-11-29T21:24:28.958Z,8.10
2022-11-29T21:26:55.842Z,8.10
2022-11-29T21:29:22.892Z,8.10
2022-11-29T21:31:50.682Z,8.20
2022-11-29T21:34:18.038Z,8.20
2022-11-29T21:36:44.790Z,8.10
2022-11-29T21:39:15.170Z,8.10
2022-11-29T21:41:44.188Z,8.10
2022-11-29T21:44:10.960Z,8.10
2022-11-29T21:46:37.923Z,8.10
2022-11-29T21:49:04.710Z,8.20
2022-11-29T21:51:34.556Z,8.10
2022-11-29T21:54:21.598Z,8.20
2022-11-29T21:57:17.548Z,8.00
2022-11-29T22:03:12.587Z,8.90
2022-11-29T22:05:46.280Z,7.80
2022-11-29T22:08:13.429Z,8.20
2022-11-29T22:09:28.813Z,8.20
2022-11-29T22:10:43.352Z,8.30
2022-11-29T22:13:13.321Z,8.30
2022-11-29T22:15:49.376Z,8.20
2022-11-29T22:18:16.215Z,8.50
2022-11-29T22:20:49.071Z,8.40
2022-11-29T22:23:15.757Z,8.30
2022-11-29T22:25:42.732Z,8.20
2022-11-29T22:28:09.437Z,8.20
2022-11-29T22:30:36.218Z,8.20
2022-11-29T22:33:02.977Z,8.20
2022-11-29T22:35:29.813Z,8.20
2022-11-29T22:37:56.609Z,8.20
2022-11-29T22:40:23.292Z,8.20
2022-11-29T22:42:50.058Z,8.10
2022-11-29T22:45:16.978Z,8.10
2022-11-29T22:47:43.990Z,8.20
2022-11-29T22:50:10.991Z,8.20
2022-11-29T22:52:39.922Z,8.20
2022-11-29T22:55:06.757Z,8.20
2022-11-29T22:57:33.451Z,8.20
2022-11-29T23:00:00.088Z,8.20
2022-11-29T23:02:28.237Z,8.20
2022-11-29T23:04:55.148Z,8.20
2022-11-29T23:07:22.167Z,8.30
2022-11-29T23:09:48.908Z,8.20
2022-11-29T23:12:18.755Z,8.20
2022-11-29T23:14:45.789Z,8.20
2022-11-29T23:17:13.758Z,8.80
2022-11-29T23:19:40.483Z,8.80
2022-11-29T23:22:07.386Z,8.20
2022-11-29T23:24:34.127Z,8.20
2022-11-29T23:27:00.926Z,8.30
2022-11-29T23:29:27.673Z,8.20
2022-11-29T23:31:54.480Z,8.50
2022-11-29T23:34:21.182Z,8.60
2022-11-29T23:36:52.600Z,8.20
2022-11-29T23:39:19.716Z,8.20
2022-11-29T23:41:46.428Z,8.30
2022-11-29T23:44:13.158Z,8.10
2022-11-29T23:46:39.915Z,8.20
2022-11-29T23:49:06.617Z,8.20
2022-11-29T23:51:33.451Z,8.20
2022-11-29T23:54:01.374Z,8.20
2022-11-29T23:56:28.231Z,8.20
2022-11-29T23:58:54.959Z,8.30
